Dryden, Ontario

4:25 AM CDT on October 21, 2014 (GMT -0500)
Dryden Regional | Change Station
CLOSE
Current Station
Airport
Location: Dryden,
Elevation: 1352 ft
Nearby Weather Stations

Elev 1352 ft 49.83 °N, 92.74 °W | Updated 25 minutes ago

Overcast
Overcast
37 °F
Feels Like 31 °F
N
8
Wind Variable Wind from South

Today is forecast to be nearly the same temperature as yesterday.

Today
High -- | Low -- °F
--% Chance of Precip.
Yesterday
High -- | Low -- °F
Precip. -- in
7:42 AM 6:08 PM
Waning Crescent, 6% visible
Pressure 30.22 in
Visibility 9.0 miles
Clouds Overcast 1700 ft
Windchill 31 °F
Dew Point 32 °F
Humidity 81%
Rainfall 0.00 in
Snow Depth Not available.
UV 0 out of 12
Pollen Not available.
Air Quality Not available.
Flu Activity Not available.
METAR CYHD 210900Z AUTO 18007KT 9SM OVC017 03/00 A3016 RMK SLP233

More Conditions Fewer Conditions

Pressure 30.22 in
Visibility 9.0 miles
Clouds Overcast 1700 ft
Windchill 31 °F
Dew Point 32 °F
Humidity 81%
Rainfall 0.00 in
Snow Depth Not available.
UV 0 out of 12
Pollen Not available.
Air Quality Not available.
Flu Activity Not available.
METAR CYHD 210900Z AUTO 18007KT 9SM OVC017 03/00 A3016 RMK SLP233

More Conditions Fewer Conditions

10-Day Weather Forecast

Almanac

Astronomy

Oct. 21, 2014 Rise Set
Actual Time 7:42 AM CDT 6:08 PM CDT
Civil Twilight 7:09 AM CDT 6:40 PM CDT
Nautical Twilight 6:31 AM CDT 7:18 PM CDT
Astronomical Twilight 5:54 AM CDT 7:55 PM CDT
Moon 5:14 AM CDT 5:12 PM CDT
Length of Visible Light 11h 31m
Length of Day
10h 25m
Tomorrow will be 3m 32s shorter.
Waning Crescent, 6% of the Moon is Illuminated
Today
Waning Crescent
Oct 23
New
Oct 30
First Quarter
Nov 6
Full
Nov 14
Last Quarter

Yesterday's Extremes

Country Highs Country Lows

Community

WunderPhotos

Upload Photos

1,763,619 photos uploaded!

Nearby

Snow Depth

Not available.

Earthquake Activity

City Distance Mag. Time & Date
No recent earthquake activity has been reported nearby.
Minimum magnitude displayed is 2.5.

Coastal Water Temperatures

Place Temperature
No Stations Reporting

Nearby Weather Stations